Time;durP1;ratioP1;P1;durP2;ratioP2;P2;SDS_P1;SDS_P2;PMS_P1;PMS_P2;Temp;Humidity;BMP_temperature;BMP_pressure;BME280_temperature;BME280_humidity;BME280_pressure;Samples;Min_cycle;Max_cycle;Signal;HPM_P1;HPM_P2
2022/07/03 00:01:24;;;;;;;10.00;7.60;;;;;;;19.93;70.17;100726.88;5547901;32;34006;-87
2022/07/03 00:04:27;;;;;;;10.60;7.65;;;;;;;19.88;70.50;100737.19;5547852;32;34589;-87
2022/07/03 00:07:31;;;;;;;7.93;7.12;;;;;;;19.85;70.79;100733.88;5547974;32;33950;-87
2022/07/03 00:10:34;;;;;;;10.93;7.65;;;;;;;19.79;71.62;100724.50;5547870;32;34276;-87
2022/07/03 00:13:36;;;;;;;11.52;7.70;;;;;;;19.73;72.36;100727.69;5548007;32;34746;-87
2022/07/03 00:16:39;;;;;;;8.15;7.35;;;;;;;19.69;72.12;100720.84;5548062;32;33901;-87
2022/07/03 00:19:41;;;;;;;11.12;7.85;;;;;;;19.65;72.53;100723.81;5547572;32;33989;-87
2022/07/03 00:22:45;;;;;;;12.77;8.23;;;;;;;19.64;72.91;100719.41;5547708;32;34052;-87
2022/07/03 00:25:49;;;;;;;9.23;7.50;;;;;;;19.62;72.80;100717.81;5552423;32;34681;-87
2022/07/03 00:28:54;;;;;;;10.68;7.95;;;;;;;19.58;73.43;100714.53;5550021;32;34137;-87
2022/07/03 00:31:57;;;;;;;8.00;7.00;;;;;;;19.59;73.21;100716.25;5547607;32;35270;-87
2022/07/03 00:35:01;;;;;;;11.50;7.80;;;;;;;19.58;73.07;100717.22;5547712;32;34467;-87
2022/07/03 00:38:04;;;;;;;8.68;7.72;;;;;;;19.52;73.49;100713.19;5546921;32;33919;-87
2022/07/03 00:41:07;;;;;;;8.77;7.85;;;;;;;19.49;74.35;100707.22;5547582;32;33932;-87
2022/07/03 00:44:10;;;;;;;9.40;7.05;;;;;;;19.44;74.65;100704.91;5547471;32;33726;-87
2022/07/03 00:47:13;;;;;;;9.10;7.93;;;;;;;19.46;74.62;100702.94;5548981;32;34121;-87
2022/07/03 00:50:16;;;;;;;9.02;8.10;;;;;;;19.39;74.75;100707.13;5563236;32;34083;-87
2022/07/03 00:53:27;;;;;;;10.25;7.97;;;;;;;19.30;75.80;100719.47;5560616;32;34779;-86
2022/07/03 00:56:31;;;;;;;9.13;8.05;;;;;;;19.22;76.52;100709.34;5550128;32;33832;-87
2022/07/03 00:59:33;;;;;;;15.05;8.40;;;;;;;19.20;76.28;100714.00;5548903;32;34543;-87
2022/07/03 01:03:11;;;;;;;10.63;8.57;;;;;;;19.12;76.66;100709.25;5548338;32;33912;-87
2022/07/03 01:06:15;;;;;;;9.93;8.00;;;;;;;19.20;76.73;100710.44;5547137;32;33967;-87
2022/07/03 01:09:26;;;;;;;8.93;8.02;;;;;;;19.28;76.61;100709.81;5533566;32;32766;-87
2022/07/03 01:12:46;;;;;;;8.98;8.02;;;;;;;19.28;76.43;100704.44;5547350;32;33946;-87
2022/07/03 01:16:04;;;;;;;9.75;8.48;;;;;;;19.25;76.39;100692.97;5564261;32;34043;-87
2022/07/03 01:19:19;;;;;;;10.25;7.97;;;;;;;19.20;76.30;100705.06;5563667;32;35293;-87
2022/07/03 01:22:37;;;;;;;11.55;8.15;;;;;;;19.21;76.59;100713.03;5547000;32;33670;-87
2022/07/03 01:25:49;;;;;;;9.98;8.43;;;;;;;19.18;nan;100702.53;5546548;32;34004;-87
2022/07/03 01:28:52;;;;;;;14.20;8.85;;;;;;;19.10;77.32;100691.53;5546528;32;34198;-87
2022/07/03 01:31:58;;;;;;;11.02;7.93;;;;;;;19.00;77.71;100688.69;5547203;32;34088;-87
2022/07/03 01:35:02;;;;;;;9.45;8.55;;;;;;;19.03;77.63;100691.19;5546882;32;33991;-87
2022/07/03 01:38:11;;;;;;;9.00;7.82;;;;;;;19.04;77.73;100697.38;5533455;32;32312;-87
2022/07/03 01:41:14;;;;;;;11.20;8.10;;;;;;;18.95;78.17;100690.87;5546597;32;33519;-87
2022/07/03 01:44:19;;;;;;;11.98;8.30;;;;;;;18.90;78.71;100680.50;5548315;32;34055;-87
2022/07/03 01:47:24;;;;;;;9.10;7.60;;;;;;;18.82;79.80;100682.97;5549480;32;33719;-87
2022/07/03 01:50:31;;;;;;;10.70;8.40;;;;;;;18.80;79.82;100674.19;5547506;32;33961;-88
2022/07/03 01:53:36;;;;;;;9.57;8.40;;;;;;;18.72;80.62;100677.47;5550603;32;34008;-91
2022/07/03 01:56:39;;;;;;;9.23;8.30;;;;;;;18.70;80.52;100674.03;5550668;32;34271;-92
2022/07/03 01:59:42;;;;;;;11.12;8.60;;;;;;;18.61;81.71;100675.66;5551113;32;34716;-91
2022/07/03 02:02:55;;;;;;;9.18;8.20;;;;;;;18.53;81.93;100676.25;5551024;32;33831;-88
2022/07/03 02:06:11;;;;;;;14.15;8.75;;;;;;;18.49;81.70;100693.59;5550548;32;34538;-87
2022/07/03 02:09:18;;;;;;;9.77;8.35;;;;;;;18.41;81.92;100678.06;5550400;32;35415;-88
2022/07/03 02:12:48;;;;;;;9.20;8.32;;;;;;;18.36;81.95;100682.94;5550550;32;33999;-88
2022/07/03 02:15:53;;;;;;;12.15;8.50;;;;;;;18.29;82.44;100681.69;5550351;32;34180;-88
2022/07/03 02:19:02;;;;;;;9.98;8.20;;;;;;;18.25;82.98;100682.94;5550984;32;34432;-87
2022/07/03 02:22:08;;;;;;;11.95;8.32;;;;;;;18.23;83.30;100685.72;5551565;32;35102;-88
2022/07/03 02:25:32;;;;;;;10.05;8.02;;;;;;;18.17;84.58;100684.34;5554954;32;33901;-86
2022/07/03 02:28:50;;;;;;;10.02;9.00;;;;;;;18.15;85.10;100677.44;5565273;32;35337;-87
2022/07/03 02:31:58;;;;;;;9.30;8.30;;;;;;;18.09;85.12;100684.09;5560725;32;34302;-86
2022/07/03 02:35:11;;;;;;;9.25;7.97;;;;;;;18.09;85.75;100684.09;5548886;32;34244;-86
2022/07/03 02:38:21;;;;;;;10.07;8.85;;;;;;;18.11;85.21;100682.16;5548636;32;33968;-86
2022/07/03 02:41:29;;;;;;;12.63;8.80;;;;;;;18.04;86.71;100681.75;5548933;32;33719;-90
2022/07/03 02:44:45;;;;;;;9.15;8.25;;;;;;;18.00;87.14;100691.00;5548772;32;33853;-87
2022/07/03 02:48:24;;;;;;;9.48;8.48;;;;;;;18.02;86.09;100680.16;5548610;32;33854;-86
2022/07/03 02:51:35;;;;;;;9.68;8.60;;;;;;;18.01;85.58;100689.19;5525461;32;34280;-87
2022/07/03 02:54:44;;;;;;;9.38;8.48;;;;;;;17.99;86.28;100696.47;5549345;32;33669;-87
2022/07/03 02:57:55;;;;;;;11.48;8.77;;;;;;;17.93;86.47;100697.81;5550437;32;34013;-87
2022/07/03 03:01:06;;;;;;;10.75;8.50;;;;;;;17.91;86.45;100697.09;5565193;32;34117;-86
2022/07/03 03:04:10;;;;;;;12.15;9.13;;;;;;;17.90;86.42;100698.91;5564638;32;35233;-86
2022/07/03 03:07:16;;;;;;;11.63;9.00;;;;;;;17.88;86.89;100692.81;5565211;32;34834;-87
2022/07/03 03:10:20;;;;;;;10.77;9.00;;;;;;;17.89;86.52;100699.00;5557472;32;34035;-87
2022/07/03 03:13:29;;;;;;;9.48;8.48;;;;;;;17.85;86.08;100695.69;5535506;32;33245;-87
2022/07/03 03:16:36;;;;;;;14.33;8.50;;;;;;;17.85;85.78;100701.06;5549557;32;34037;-88
2022/07/03 03:19:46;;;;;;;9.73;8.13;;;;;;;17.85;85.63;100693.00;5548854;32;34011;-87
2022/07/03 03:23:07;;;;;;;9.88;8.50;;;;;;;17.85;85.38;100693.00;5548758;32;33895;-86
2022/07/03 03:26:11;;;;;;;9.68;8.68;;;;;;;17.87;85.20;100703.66;5549359;32;33870;-86
2022/07/03 03:29:14;;;;;;;13.25;8.60;;;;;;;17.85;85.64;100705.59;5549258;32;34514;-90
2022/07/03 03:32:17;;;;;;;10.45;8.63;;;;;;;17.93;85.91;100708.53;5548965;32;35191;-91
2022/07/03 03:35:20;;;;;;;11.75;8.52;;;;;;;17.96;86.22;100705.66;5549008;32;34682;-90
2022/07/03 03:38:23;;;;;;;11.07;8.82;;;;;;;18.04;85.85;100696.97;5549254;32;34217;-91
2022/07/03 03:41:26;;;;;;;9.43;8.43;;;;;;;18.05;85.92;100691.53;5549717;32;33864;-87
2022/07/03 03:44:29;;;;;;;12.23;9.27;;;;;;;18.10;85.80;100693.88;5548552;32;34516;-87
2022/07/03 03:47:33;;;;;;;10.60;8.45;;;;;;;18.13;86.07;100687.41;5549309;32;35942;-87
2022/07/03 03:50:36;;;;;;;12.05;8.57;;;;;;;18.14;86.31;100689.97;5548572;32;34826;-87
2022/07/03 03:53:39;;;;;;;10.88;8.70;;;;;;;18.07;87.09;100691.44;5548358;32;33917;-87
2022/07/03 03:56:41;;;;;;;11.75;9.07;;;;;;;18.10;86.84;100682.28;5551548;32;34198;-86
2022/07/03 03:59:44;;;;;;;18.40;9.38;;;;;;;18.07;87.31;100679.81;5553295;32;33855;-86
2022/07/03 04:02:47;;;;;;;11.23;9.30;;;;;;;18.10;87.32;100687.66;5553490;32;33720;-86
2022/07/03 04:05:50;;;;;;;10.05;8.25;;;;;;;18.14;87.13;100681.06;5552906;32;34037;-86
2022/07/03 04:08:53;;;;;;;9.57;8.63;;;;;;;18.26;86.71;100680.09;5548026;32;34310;-87
2022/07/03 04:11:56;;;;;;;12.35;8.77;;;;;;;18.41;86.43;100686.12;5548041;32;34223;-87
2022/07/03 04:14:59;;;;;;;11.38;9.27;;;;;;;18.53;86.85;100695.06;5547863;32;34598;-86
2022/07/03 04:18:02;;;;;;;10.13;8.98;;;;;;;18.64;86.44;100699.59;5552611;32;34322;-86
2022/07/03 04:21:05;;;;;;;9.73;8.52;;;;;;;18.78;85.45;100703.00;5551224;32;34275;-86
2022/07/03 04:24:07;;;;;;;9.80;8.80;;;;;;;18.86;83.84;100705.94;5547848;32;35093;-86
2022/07/03 04:27:10;;;;;;;9.88;8.85;;;;;;;18.92;83.01;100702.78;5548142;32;34709;-86
2022/07/03 04:30:13;;;;;;;9.88;8.88;;;;;;;19.03;82.85;100707.31;5545180;32;126773;-86
2022/07/03 04:33:15;;;;;;;13.57;8.93;;;;;;;19.11;83.25;100707.53;5548648;32;34571;-86
2022/07/03 04:36:18;;;;;;;9.82;8.80;;;;;;;19.43;81.96;100703.22;5547854;32;33971;-86
2022/07/03 04:39:21;;;;;;;11.40;8.82;;;;;;;19.61;81.07;100689.22;5548551;32;34667;-86
2022/07/03 04:42:23;;;;;;;11.02;8.70;;;;;;;19.87;79.96;100695.09;5548429;32;33573;-86
2022/07/03 04:45:26;;;;;;;10.73;8.80;;;;;;;19.92;79.34;100690.16;5533916;32;32570;-87
2022/07/03 04:48:30;;;;;;;10.52;8.48;;;;;;;19.96;79.55;100693.47;5547457;32;34562;-87
2022/07/03 04:51:32;;;;;;;10.18;8.05;;;;;;;20.10;79.03;100689.62;5547811;32;33412;-87
2022/07/03 04:54:36;;;;;;;9.70;8.70;;;;;;;20.23;78.52;100691.25;5547821;32;33856;-86
2022/07/03 04:57:38;;;;;;;9.65;8.23;;;;;;;20.38;77.73;100686.41;5548193;32;34674;-87
2022/07/03 05:00:43;;;;;;;9.82;8.20;;;;;;;20.56;76.88;100689.31;5547443;32;34661;-87
2022/07/03 05:03:46;;;;;;;10.55;8.13;;;;;;;20.73;76.34;100679.78;5547504;32;33815;-87
2022/07/03 05:06:49;;;;;;;10.60;7.90;;;;;;;21.02;75.51;100675.50;5547268;32;33708;-87
2022/07/03 05:09:51;;;;;;;9.23;8.07;;;;;;;21.12;74.32;100676.38;5547465;32;35355;-86
2022/07/03 05:12:54;;;;;;;9.60;8.57;;;;;;;21.30;73.20;100671.16;5547900;32;33758;-86
2022/07/03 05:15:56;;;;;;;9.13;7.93;;;;;;;21.27;72.44;100671.44;5547785;32;33706;-87
2022/07/03 05:18:59;;;;;;;9.82;7.90;;;;;;;21.60;71.62;100674.75;5559683;32;33943;-86
2022/07/03 05:22:02;;;;;;;8.35;7.45;;;;;;;22.28;68.40;100667.56;5563588;32;34108;-87
2022/07/03 05:25:05;;;;;;;10.65;7.32;;;;;;;24.85;59.91;100666.53;5553938;32;34153;-88
2022/07/03 05:28:08;;;;;;;7.95;7.15;;;;;;;28.61;46.92;100665.91;5550108;32;33819;-88
2022/07/03 05:31:11;;;;;;;7.65;6.90;;;;;;;31.28;40.66;100654.03;5561826;32;33954;-88
2022/07/03 05:34:13;;;;;;;11.05;6.07;;;;;;;32.14;36.87;100657.06;5563462;32;34723;-88
2022/07/03 05:37:16;;;;;;;8.10;7.05;;;;;;;34.41;33.99;100660.63;5554584;32;34713;-88
2022/07/03 05:40:19;;;;;;;7.32;6.50;;;;;;;35.28;31.70;100659.78;5552262;32;33968;-88
2022/07/03 05:43:21;;;;;;;7.45;6.30;;;;;;;37.60;27.93;100660.44;5561277;32;33822;-87
2022/07/03 05:46:24;;;;;;;9.98;6.40;;;;;;;38.19;26.39;100649.19;5564808;32;34203;-88
2022/07/03 05:49:28;;;;;;;6.65;5.90;;;;;;;39.02;25.65;100661.31;5551925;32;34480;-87
2022/07/03 05:52:31;;;;;;;6.57;5.97;;;;;;;39.75;24.49;100660.03;5555143;32;36077;-87
2022/07/03 05:55:34;;;;;;;7.43;6.55;;;;;;;39.61;24.64;100660.50;5555726;32;34602;-88
2022/07/03 05:58:37;;;;;;;6.32;5.82;;;;;;;38.28;25.76;100658.72;5550798;32;33922;-86
2022/07/03 06:01:40;;;;;;;6.30;5.70;;;;;;;39.33;24.77;100670.78;5551182;32;33907;-89
2022/07/03 06:04:43;;;;;;;6.62;6.00;;;;;;;39.35;24.54;100670.50;5550884;32;33954;-90
2022/07/03 06:07:45;;;;;;;6.55;5.97;;;;;;;39.59;24.60;100668.28;5551375;32;34232;-91
2022/07/03 06:10:48;;;;;;;7.95;5.87;;;;;;;39.76;24.23;100667.25;5550795;32;34331;-90
2022/07/03 06:13:51;;;;;;;6.97;6.00;;;;;;;41.48;22.33;100669.69;5562167;32;34895;-86
2022/07/03 06:16:54;;;;;;;6.40;5.90;;;;;;;42.05;21.56;100671.59;5564099;32;34508;-87
2022/07/03 06:19:57;;;;;;;5.87;5.37;;;;;;;41.02;22.35;100667.66;5552703;32;34805;-86
2022/07/03 06:22:59;;;;;;;5.68;5.18;;;;;;;40.90;22.96;100664.31;5553355;32;34095;-86
2022/07/03 06:26:02;;;;;;;6.32;5.70;;;;;;;41.91;22.11;100665.78;5551557;32;33931;-87
2022/07/03 06:29:05;;;;;;;6.00;5.50;;;;;;;39.89;23.81;100669.59;5549265;32;33648;-87
2022/07/03 06:32:07;;;;;;;5.82;5.32;;;;;;;38.35;25.98;100670.44;5549351;32;33854;-87
2022/07/03 06:35:10;;;;;;;5.93;5.43;;;;;;;39.37;24.99;100673.88;5535188;32;33095;-87
2022/07/03 06:38:14;;;;;;;6.72;5.15;;;;;;;41.14;23.08;100678.56;5548108;32;33739;-86
2022/07/03 06:41:17;;;;;;;6.05;5.50;;;;;;;40.61;23.08;100676.69;5549221;32;33853;-87
2022/07/03 06:44:19;;;;;;;6.82;6.20;;;;;;;37.72;26.84;100674.22;5549625;32;33826;-87
2022/07/03 06:47:22;;;;;;;6.93;6.37;;;;;;;35.65;29.45;100667.94;5534667;32;33991;-87
2022/07/03 06:50:25;;;;;;;6.47;5.97;;;;;;;34.40;31.74;100661.66;5549146;32;33900;-86
2022/07/03 06:53:28;;;;;;;7.45;6.75;;;;;;;34.23;32.44;100660.63;5549840;32;33818;-86
2022/07/03 06:56:30;;;;;;;6.95;6.35;;;;;;;33.80;33.30;100654.00;5548782;32;33796;-86
2022/07/03 06:59:33;;;;;;;7.53;6.82;;;;;;;33.13;33.94;100658.88;5548838;32;34269;-86
2022/07/03 07:02:36;;;;;;;7.72;7.07;;;;;;;34.02;32.67;100648.91;5548862;32;34019;-86
2022/07/03 07:05:38;;;;;;;7.87;7.15;;;;;;;32.85;34.93;100654.56;5548841;32;33823;-86
2022/07/03 07:08:41;;;;;;;7.37;6.68;;;;;;;32.60;35.22;100651.69;5534353;32;32755;-86
2022/07/03 07:11:44;;;;;;;8.00;7.25;;;;;;;31.99;37.05;100647.13;5548473;32;34055;-86
2022/07/03 07:14:47;;;;;;;7.82;7.12;;;;;;;31.57;37.06;100647.34;5548751;32;33963;-86
2022/07/03 07:17:50;;;;;;;7.43;6.80;;;;;;;31.81;37.08;100642.28;5551535;32;34032;-86
2022/07/03 07:20:52;;;;;;;8.23;7.40;;;;;;;31.60;38.17;100643.34;5550120;32;34229;-86
2022/07/03 07:23:55;;;;;;;8.98;8.15;;;;;;;31.97;37.45;100640.22;5553425;32;33944;-86
2022/07/03 07:26:58;;;;;;;10.20;7.68;;;;;;;31.46;37.89;100637.84;5551179;32;33997;-86
2022/07/03 07:30:01;;;;;;;7.72;7.00;;;;;;;31.28;38.00;100637.59;5548635;32;34504;-86
2022/07/03 07:33:04;;;;;;;8.55;7.65;;;;;;;31.59;37.70;100638.91;5548737;32;34029;-86
2022/07/03 07:36:07;;;;;;;8.18;7.28;;;;;;;31.56;37.74;100631.94;5548379;32;33871;-86
2022/07/03 07:39:11;;;;;;;7.72;7.03;;;;;;;31.85;37.51;100631.75;5548901;32;34318;-86
2022/07/03 07:42:15;;;;;;;8.80;7.62;;;;;;;32.53;36.17;100635.25;5548403;32;34585;-86
2022/07/03 07:45:18;;;;;;;8.52;7.72;;;;;;;32.56;36.74;100639.44;5548219;32;34067;-86
2022/07/03 07:48:21;;;;;;;8.20;7.40;;;;;;;31.82;37.73;100640.41;5534682;32;33742;-86
2022/07/03 07:51:24;;;;;;;10.13;7.97;;;;;;;31.62;38.20;100645.88;5549333;32;34226;-87
2022/07/03 07:54:28;;;;;;;8.65;7.80;;;;;;;31.76;37.38;100642.06;5549436;32;34649;-87
2022/07/03 07:57:35;;;;;;;9.32;7.40;;;;;;;31.34;37.27;100642.25;5535812;32;33661;-87
2022/07/03 08:05:35;;;;;;;8.50;7.70;;;;;;;31.79;37.95;100640.81;5548714;32;33959;-87
2022/07/03 08:07:23;;;;;;;9.35;8.38;;;;;;;32.24;35.79;100651.13;5547927;32;34836;-91
2022/07/03 08:10:26;;;;;;;8.48;7.78;;;;;;;32.30;36.29;100654.91;5548542;32;34016;-87
2022/07/03 08:13:29;;;;;;;8.57;7.47;;;;;;;31.19;38.54;100645.16;5548201;32;34340;-87
2022/07/03 08:16:31;;;;;;;8.65;7.85;;;;;;;32.88;36.15;100659.59;5548131;32;33874;-87
2022/07/03 08:19:34;;;;;;;8.63;7.65;;;;;;;32.98;34.86;100650.91;5559037;32;33691;-87
2022/07/03 08:22:37;;;;;;;9.30;7.40;;;;;;;33.26;34.66;100646.09;5540196;32;33551;-87
2022/07/03 08:25:39;;;;;;;9.05;8.23;;;;;;;33.15;35.29;100645.78;5548199;32;34300;-87
2022/07/03 08:28:42;;;;;;;9.35;7.53;;;;;;;33.86;33.82;100637.44;5548796;32;34109;-87
2022/07/03 08:31:45;;;;;;;10.32;7.43;;;;;;;34.58;32.04;100643.50;5548821;32;34512;-86
2022/07/03 08:34:48;;;;;;;8.30;7.50;;;;;;;34.57;31.66;100639.06;5548346;32;33912;-87
2022/07/03 08:37:51;;;;;;;9.38;8.00;;;;;;;35.09;31.13;100643.28;5549097;32;34149;-88
2022/07/03 08:41:03;;;;;;;9.38;7.75;;;;;;;34.48;31.88;100640.44;5548551;32;33821;-86
2022/07/03 08:44:08;;;;;;;8.15;7.45;;;;;;;34.34;32.33;100637.00;5548559;32;34257;-86
2022/07/03 08:47:12;;;;;;;8.23;7.30;;;;;;;35.36;31.16;100642.91;5548664;32;34853;-87
2022/07/03 08:50:17;;;;;;;9.43;7.45;;;;;;;35.93;30.52;100632.47;5548131;32;33574;-86
2022/07/03 08:53:20;;;;;;;7.97;7.25;;;;;;;36.18;29.21;100634.97;5547678;32;33865;-86
2022/07/03 08:56:23;;;;;;;8.18;7.37;;;;;;;35.89;29.59;100637.59;5554797;32;35321;-87
2022/07/03 08:59:32;;;;;;;8.98;8.05;;;;;;;36.22;29.51;100633.41;5533976;32;33139;-87
2022/07/03 09:02:34;;;;;;;7.97;7.28;;;;;;;35.91;29.81;100626.31;5550305;32;34402;-87
2022/07/03 09:05:38;;;;;;;8.57;6.82;;;;;;;36.10;29.69;100622.38;5536151;32;33798;-86
2022/07/03 09:08:41;;;;;;;8.13;7.35;;;;;;;36.80;28.82;100633.53;5549803;32;34533;-87
2022/07/03 09:11:45;;;;;;;7.53;6.82;;;;;;;37.42;27.42;100628.31;5556760;32;34305;-86
2022/07/03 09:14:48;;;;;;;7.60;6.90;;;;;;;37.20;28.00;100622.69;5550120;32;35390;-87
2022/07/03 09:18:02;;;;;;;10.40;7.60;;;;;;;37.30;28.04;100611.78;5560007;32;34187;-87
2022/07/03 09:21:06;;;;;;;7.70;7.00;;;;;;;35.92;29.27;100608.69;5551771;32;33903;-87
2022/07/03 09:24:10;;;;;;;9.15;7.50;;;;;;;36.32;29.15;100604.34;5549954;32;33963;-87
2022/07/03 09:27:22;;;;;;;7.97;7.20;;;;;;;37.13;27.58;100610.91;5550264;32;34726;-87
2022/07/03 09:30:26;;;;;;;7.82;7.22;;;;;;;37.31;28.51;100607.94;5550419;32;34070;-86
2022/07/03 09:33:29;;;;;;;8.00;7.40;;;;;;;36.76;28.15;100601.97;5536717;32;33661;-86
2022/07/03 09:36:47;;;;;;;8.25;7.37;;;;;;;37.01;27.54;100602.69;5550143;32;34319;-86
2022/07/03 09:39:56;;;;;;;8.10;7.45;;;;;;;36.32;28.53;100598.81;5550258;32;34023;-87
2022/07/03 09:43:07;;;;;;;7.85;7.07;;;;;;;35.97;29.25;100595.84;5551105;32;34168;-91
2022/07/03 09:46:10;;;;;;;8.23;7.15;;;;;;;36.73;28.80;100587.78;5551145;32;33838;-87
2022/07/03 09:49:13;;;;;;;8.80;7.82;;;;;;;37.96;26.65;100581.84;5553016;32;33755;-87
2022/07/03 09:52:34;;;;;;;7.57;6.97;;;;;;;38.51;26.13;100574.50;5559546;32;34633;-86
2022/07/03 09:55:37;;;;;;;8.32;7.40;;;;;;;38.69;25.72;100575.28;5548589;32;32894;-87
2022/07/03 09:58:40;;;;;;;7.85;7.05;;;;;;;38.67;25.58;100578.31;5542658;32;32582;-87
2022/07/03 10:01:44;;;;;;;7.18;6.57;;;;;;;37.80;26.19;100578.84;5549330;32;34125;-86
2022/07/03 10:04:47;;;;;;;8.55;7.72;;;;;;;36.82;27.70;100572.50;5549233;32;34106;-87
2022/07/03 10:08:04;;;;;;;7.78;7.07;;;;;;;36.47;27.97;100571.53;5549162;32;34636;-87
2022/07/03 10:11:07;;;;;;;8.57;7.87;;;;;;;36.93;27.65;100576.28;5550569;32;33916;-87
2022/07/03 10:14:18;;;;;;;7.97;7.30;;;;;;;36.55;27.78;100570.31;5549695;32;34627;-87
2022/07/03 10:17:20;;;;;;;7.75;7.05;;;;;;;36.40;28.28;100562.56;5549367;32;33880;-87
2022/07/03 10:20:49;;;;;;;7.87;7.22;;;;;;;36.77;27.87;100561.34;5535343;32;32617;-87
2022/07/03 10:23:52;;;;;;;9.77;7.30;;;;;;;37.25;26.63;100552.81;5540345;32;33737;-86
2022/07/03 10:26:57;;;;;;;7.90;7.10;;;;;;;38.01;25.80;100557.00;5536185;32;33330;-87
2022/07/03 10:30:00;;;;;;;8.57;7.40;;;;;;;38.55;24.96;100545.22;5548843;32;34100;-87
2022/07/03 10:33:03;;;;;;;9.15;7.40;;;;;;;39.04;24.29;100545.44;5549075;32;34266;-87
2022/07/03 10:36:07;;;;;;;7.40;6.75;;;;;;;39.07;24.11;100542.97;5549160;32;33729;-87
2022/07/03 10:39:18;;;;;;;8.55;7.28;;;;;;;39.87;23.50;100544.09;5550117;32;34019;-87
2022/07/03 10:46:14;;;;;;;7.70;7.10;;;;;;;37.77;25.46;100528.69;5548308;32;34414;-87
2022/07/03 10:49:18;;;;;;;8.57;7.55;;;;;;;35.60;28.53;100529.91;5549426;32;34332;-87
2022/07/03 10:52:21;;;;;;;7.53;6.72;;;;;;;35.26;29.41;100524.94;5549167;32;33595;-87
2022/07/03 10:55:23;;;;;;;8.73;7.22;;;;;;;35.70;28.58;100519.06;5549669;32;34175;-87
2022/07/03 10:58:27;;;;;;;7.87;7.20;;;;;;;36.17;28.11;100516.50;5548451;32;34332;-87
2022/07/03 11:01:35;;;;;;;7.60;6.90;;;;;;;35.45;29.10;100511.03;5553981;32;34417;-87
2022/07/03 11:04:56;;;;;;;10.90;6.93;;;;;;;36.03;28.67;100511.22;5555648;32;34432;-86
2022/07/03 11:07:59;;;;;;;7.20;6.50;;;;;;;36.89;26.82;100506.84;5555007;32;34154;-88
2022/07/03 11:11:54;;;;;;;8.15;6.30;;;;;;;37.20;26.05;100501.84;5549957;32;34191;-86
2022/07/03 11:14:26;;;;;;;7.45;6.40;;;;;;;37.67;25.71;100502.56;5548183;32;34360;-86
2022/07/03 11:17:29;;;;;;;7.97;6.75;;;;;;;36.85;27.28;100508.41;5551066;32;34257;-86
2022/07/03 11:20:33;;;;;;;7.97;6.05;;;;;;;36.72;27.20;100494.94;5548824;32;34683;-86
2022/07/03 11:24:00;;;;;;;7.05;6.45;;;;;;;36.96;26.56;100490.09;5548031;32;34331;-87
2022/07/03 11:27:24;;;;;;;9.98;6.45;;;;;;;36.97;26.49;100488.16;5509172;32;34507;-86
2022/07/03 11:30:28;;;;;;;7.72;6.15;;;;;;;36.62;25.91;100487.28;5548538;32;33609;-86
2022/07/03 11:33:53;;;;;;;7.18;5.93;;;;;;;36.79;26.38;100484.53;5534268;32;34038;-90
2022/07/03 11:36:56;;;;;;;6.10;5.53;;;;;;;36.03;27.29;100483.63;5548544;32;34375;-86
2022/07/03 11:40:03;;;;;;;6.95;6.32;;;;;;;36.71;26.02;100479.44;5550179;32;33977;-86
2022/07/03 11:43:05;;;;;;;6.78;6.00;;;;;;;35.51;28.33;100468.72;5548577;32;34728;-86
2022/07/03 11:46:08;;;;;;;6.32;5.72;;;;;;;35.94;26.88;100468.56;5548278;32;34145;-87
2022/07/03 11:49:16;;;;;;;6.03;5.40;;;;;;;36.24;26.49;100467.53;5548139;32;34357;-85
2022/07/03 11:52:33;;;;;;;8.33;5.67;;;;;;;36.38;26.26;100459.75;5548627;32;33910;-86
2022/07/03 11:55:49;;;;;;;6.82;5.60;;;;;;;36.42;25.74;100458.19;5548689;32;34264;-86
2022/07/03 11:58:54;;;;;;;5.87;5.10;;;;;;;36.07;26.12;100450.84;5535779;32;33958;-86
2022/07/03 12:02:03;;;;;;;6.93;5.30;;;;;;;35.62;26.95;100450.50;5535520;32;32576;-86
2022/07/03 12:05:15;;;;;;;6.00;5.18;;;;;;;36.07;26.48;100445.34;5549738;32;34629;-87
2022/07/03 12:08:32;;;;;;;6.50;5.30;;;;;;;36.17;25.72;100445.56;5549041;32;34731;-87
2022/07/03 12:11:35;;;;;;;5.65;5.00;;;;;;;35.55;26.33;100441.50;5548018;32;34477;-86
2022/07/03 12:14:50;;;;;;;6.22;5.07;;;;;;;35.51;26.79;100438.38;5547730;32;34260;-87
2022/07/03 12:17:53;;;;;;;7.90;5.37;;;;;;;35.20;27.02;100434.94;5548299;32;34126;-86
2022/07/03 12:21:04;;;;;;;6.20;4.95;;;;;;;35.25;27.21;100432.28;5534002;32;34922;-87
2022/07/03 12:24:13;;;;;;;6.62;4.82;;;;;;;35.16;27.00;100422.69;5547813;32;33845;-86
2022/07/03 12:27:15;;;;;;;6.03;5.30;;;;;;;35.25;26.94;100424.03;5548576;32;33952;-90
2022/07/03 12:30:25;;;;;;;4.95;4.45;;;;;;;34.77;27.30;100420.34;5547881;32;34475;-91
2022/07/03 12:33:34;;;;;;;6.43;4.72;;;;;;;35.24;26.59;100410.47;5533548;32;33443;-87
2022/07/03 12:36:38;;;;;;;7.68;4.37;;;;;;;35.42;26.51;100402.06;5549959;32;35141;-87
2022/07/03 12:39:45;;;;;;;8.18;4.60;;;;;;;35.34;26.12;100405.19;5561872;32;35125;-87
2022/07/03 12:42:50;;;;;;;5.72;4.37;;;;;;;35.40;25.95;100404.22;5555393;32;34118;-87
2022/07/03 12:45:52;;;;;;;8.68;4.25;;;;;;;34.78;26.90;100402.75;5550542;32;33952;-88
2022/07/03 12:48:57;;;;;;;6.00;4.30;;;;;;;35.18;27.27;100399.31;5557986;32;33955;-87
2022/07/03 12:52:00;;;;;;;4.62;3.90;;;;;;;35.73;26.19;100394.47;5563452;32;35036;-87
2022/07/03 12:55:04;;;;;;;5.37;3.90;;;;;;;35.70;26.04;100396.87;5549934;32;33866;-87
2022/07/03 13:01:38;;;;;;;4.78;3.90;;;;;;;35.71;25.78;100396.63;5563455;32;34794;-87
2022/07/03 13:04:41;;;;;;;5.47;3.90;;;;;;;35.39;25.84;100386.00;5553859;32;35350;-86
2022/07/03 13:07:55;;;;;;;7.87;4.15;;;;;;;35.15;26.33;100388.75;5551297;32;34064;-86
2022/07/03 13:11:00;;;;;;;7.18;4.28;;;;;;;35.11;26.86;100387.59;5552345;31;34966;-86
2022/07/03 13:14:04;;;;;;;5.12;4.12;;;;;;;34.64;27.48;100386.44;5540124;32;33744;-86
2022/07/03 13:17:07;;;;;;;5.05;4.20;;;;;;;34.19;27.94;100386.91;5558969;32;34207;-86
2022/07/03 13:20:10;;;;;;;6.43;4.20;;;;;;;33.82;29.09;100374.03;5559691;32;35398;-85
2022/07/03 13:23:12;;;;;;;4.87;4.47;;;;;;;33.94;28.53;100376.84;5538225;32;32425;-86
2022/07/03 13:26:15;;;;;;;4.43;4.07;;;;;;;33.90;28.86;100373.72;5552539;31;34344;-86
2022/07/03 13:29:18;;;;;;;4.85;4.43;;;;;;;34.03;28.67;100375.44;5555391;32;34154;-86
2022/07/03 13:32:20;;;;;;;5.62;4.28;;;;;;;34.08;28.64;100372.03;5549330;32;34248;-86
2022/07/03 13:35:23;;;;;;;7.05;4.20;;;;;;;34.20;28.47;100366.56;5556578;32;34173;-87
2022/07/03 13:38:26;;;;;;;5.70;3.97;;;;;;;33.97;28.28;100365.38;5547742;32;33779;-87
2022/07/03 13:41:28;;;;;;;6.20;3.70;;;;;;;34.54;27.45;100364.16;5541357;32;34009;-86
2022/07/03 13:44:31;;;;;;;7.10;3.75;;;;;;;34.85;26.32;100364.06;5547004;32;34179;-86
2022/07/03 13:47:34;;;;;;;4.45;3.65;;;;;;;34.47;26.26;100361.50;5549661;32;33856;-86
2022/07/03 13:50:37;;;;;;;5.43;3.70;;;;;;;34.32;26.42;100353.69;5537216;32;33340;-86
2022/07/03 13:53:39;;;;;;;7.20;3.78;;;;;;;33.46;28.44;100354.56;5549885;32;33679;-86
2022/07/03 13:56:42;;;;;;;4.72;3.50;;;;;;;34.05;27.64;100354.09;5549825;32;34873;-86
2022/07/03 13:59:46;;;;;;;6.15;4.18;;;;;;;34.09;27.23;100354.47;5550196;32;34031;-87
2022/07/03 14:02:49;;;;;;;6.62;4.00;;;;;;;33.64;27.43;100344.66;5551941;32;34227;-87
2022/07/03 14:05:52;;;;;;;3.97;3.67;;;;;;;33.99;27.79;100353.06;5549764;32;34408;-87
2022/07/03 14:08:55;;;;;;;5.50;3.30;;;;;;;33.94;27.82;100352.91;5549216;32;33729;-92
2022/07/03 14:11:59;;;;;;;3.40;3.10;;;;;;;33.83;27.30;100356.47;5548723;32;34405;-89
2022/07/03 14:15:02;;;;;;;5.62;3.28;;;;;;;33.95;27.66;100351.00;5549331;32;33881;-90
2022/07/03 14:18:05;;;;;;;7.28;3.22;;;;;;;34.16;27.18;100349.69;5535829;32;34106;-86
2022/07/03 14:21:07;;;;;;;4.07;2.97;;;;;;;33.85;27.64;100355.16;5549824;32;35115;-86
2022/07/03 14:24:10;;;;;;;4.05;3.08;;;;;;;33.68;27.77;100351.38;5550060;32;34470;-86
2022/07/03 14:33:56;;;;;;;3.90;3.25;;;;;;;33.59;28.34;100345.37;5551073;32;33719;-87
2022/07/03 14:36:58;;;;;;;4.68;3.35;;;;;;;33.56;28.14;100343.06;5549972;32;34406;-86
2022/07/03 14:40:01;;;;;;;8.52;3.42;;;;;;;33.82;28.40;100341.03;5549206;32;33995;-86